Time;durP1;ratioP1;P1;durP2;ratioP2;P2;SDS_P1;SDS_P2;PMS_P1;PMS_P2;Temp;Humidity;BMP_temperature;BMP_pressure;BME280_temperature;BME280_humidity;BME280_pressure;Samples;Min_cycle;Max_cycle;Signal;HPM_P1;HPM_P2
2021/11/26 05:02:23;;;;;;;35.30;18.10;;;4.60;99.90;;;;;;5118648;23;20317;-71
2021/11/26 05:04:50;;;;;;;46.28;18.75;;;4.60;99.90;;;;;;5007853;28;20211;-71
2021/11/26 05:07:19;;;;;;;31.05;16.25;;;4.60;99.90;;;;;;5014288;28;20233;-71
2021/11/26 05:09:46;;;;;;;36.97;19.80;;;4.60;99.90;;;;;;5005494;28;20199;-71
2021/11/26 05:12:13;;;;;;;37.90;18.48;;;4.60;99.90;;;;;;4994557;28;20224;-71
2021/11/26 05:14:40;;;;;;;35.83;18.17;;;4.60;99.90;;;;;;4988115;28;20513;-71
2021/11/26 05:17:07;;;;;;;32.65;17.83;;;4.60;99.90;;;;;;4976264;28;20216;-70
2021/11/26 05:19:35;;;;;;;32.50;16.88;;;4.70;99.90;;;;;;4979328;28;20215;-70
2021/11/26 05:22:01;;;;;;;38.28;18.73;;;4.70;99.90;;;;;;4979861;28;20239;-70
2021/11/26 05:24:28;;;;;;;33.60;16.70;;;4.70;99.90;;;;;;4975800;28;20223;-70
2021/11/26 05:26:55;;;;;;;30.33;15.88;;;4.70;99.90;;;;;;4975772;28;20677;-70
2021/11/26 05:29:22;;;;;;;31.73;16.58;;;4.70;99.90;;;;;;4977825;28;20215;-70
2021/11/26 05:31:48;;;;;;;33.00;16.88;;;4.70;99.90;;;;;;4980015;28;20229;-70
2021/11/26 05:34:15;;;;;;;42.55;16.42;;;4.70;99.90;;;;;;4983734;28;20235;-70
2021/11/26 05:36:43;;;;;;;30.88;17.45;;;4.70;99.90;;;;;;4979214;28;20224;-70
2021/11/26 05:39:10;;;;;;;36.10;18.30;;;4.70;99.90;;;;;;4974617;28;20216;-70
2021/11/26 05:41:37;;;;;;;30.45;16.42;;;4.70;99.90;;;;;;4991909;28;20245;-70
2021/11/26 05:44:04;;;;;;;34.22;17.67;;;4.70;99.90;;;;;;5013579;28;20207;-70
2021/11/26 05:46:31;;;;;;;38.70;16.05;;;4.70;99.90;;;;;;5000497;28;20258;-70
2021/11/26 05:48:57;;;;;;;33.88;15.48;;;4.70;99.90;;;;;;4977672;28;20581;-70
2021/11/26 05:51:24;;;;;;;29.35;16.60;;;4.70;99.90;;;;;;4980046;28;20224;-70
2021/11/26 05:53:53;;;;;;;35.95;14.27;;;4.80;99.90;;;;;;4991613;28;20208;-70
2021/11/26 05:56:19;;;;;;;35.85;16.92;;;4.80;99.90;;;;;;4983526;28;20243;-73
2021/11/26 05:58:46;;;;;;;38.67;16.08;;;4.70;99.90;;;;;;4981459;28;20213;-72
2021/11/26 06:01:13;;;;;;;38.78;15.32;;;4.80;99.90;;;;;;4984327;28;20315;-72
2021/11/26 06:03:40;;;;;;;32.65;15.50;;;4.70;99.90;;;;;;4974393;28;20205;-71
2021/11/26 06:06:07;;;;;;;29.70;14.25;;;4.70;99.90;;;;;;4984563;28;20811;-70
2021/11/26 06:08:34;;;;;;;37.22;16.35;;;4.80;99.90;;;;;;4975191;28;20214;-70
2021/11/26 06:11:02;;;;;;;29.52;15.40;;;4.80;99.90;;;;;;4992592;28;20220;-70
2021/11/26 06:13:29;;;;;;;36.05;14.85;;;4.80;99.90;;;;;;4993516;28;20222;-71
2021/11/26 06:15:55;;;;;;;29.88;15.25;;;4.80;99.90;;;;;;4978539;28;20279;-70
2021/11/26 06:18:22;;;;;;;34.20;16.17;;;4.80;99.90;;;;;;4973375;28;20417;-71
2021/11/26 06:20:49;;;;;;;32.00;14.15;;;4.80;99.90;;;;;;4987723;28;20228;-70
2021/11/26 06:23:16;;;;;;;37.63;18.17;;;4.80;99.90;;;;;;4993378;28;20203;-70
2021/11/26 06:25:42;;;;;;;34.13;16.40;;;4.80;99.90;;;;;;4983706;28;20208;-70
2021/11/26 06:28:10;;;;;;;30.45;14.43;;;4.80;99.90;;;;;;4993060;28;20677;-69
2021/11/26 06:30:37;;;;;;;37.22;16.20;;;4.80;99.90;;;;;;4988708;28;20329;-70
2021/11/26 06:33:05;;;;;;;31.45;14.35;;;4.80;99.90;;;;;;4980366;28;20303;-72
2021/11/26 06:35:32;;;;;;;25.80;14.10;;;4.80;99.90;;;;;;4980464;28;20276;-71
2021/11/26 06:37:59;;;;;;;29.27;13.80;;;4.90;99.90;;;;;;4993908;28;20204;-70
2021/11/26 06:40:26;;;;;;;28.27;15.20;;;4.80;99.90;;;;;;4985385;28;20236;-71
2021/11/26 06:42:53;;;;;;;33.97;14.98;;;4.90;99.90;;;;;;4990071;28;20216;-71
2021/11/26 06:45:21;;;;;;;35.88;14.18;;;4.90;99.90;;;;;;4990815;28;20204;-71
2021/11/26 06:47:48;;;;;;;31.80;14.75;;;4.90;99.90;;;;;;4992156;28;20207;-73
2021/11/26 06:50:17;;;;;;;31.25;17.52;;;4.90;99.90;;;;;;4985655;28;20203;-71
2021/11/26 06:52:44;;;;;;;27.67;14.60;;;4.90;99.90;;;;;;4987187;28;20207;-71
2021/11/26 06:55:11;;;;;;;26.27;13.50;;;4.90;99.90;;;;;;4973359;28;20209;-71
2021/11/26 06:57:39;;;;;;;27.60;15.40;;;4.90;99.90;;;;;;4993070;28;20530;-70
2021/11/26 07:00:08;;;;;;;28.23;15.88;;;4.90;99.90;;;;;;4987680;28;20214;-69
2021/11/26 07:02:36;;;;;;;28.83;14.02;;;4.90;99.90;;;;;;4986687;28;20326;-69
2021/11/26 07:05:04;;;;;;;34.83;16.48;;;4.90;99.90;;;;;;4994020;28;20211;-70
2021/11/26 07:07:31;;;;;;;33.63;15.05;;;4.90;99.90;;;;;;4986544;28;20235;-71
2021/11/26 07:09:58;;;;;;;31.02;14.88;;;5.00;99.90;;;;;;4972566;28;20232;-71
2021/11/26 07:12:25;;;;;;;27.25;14.40;;;5.00;99.90;;;;;;4974831;28;20228;-70
2021/11/26 07:14:51;;;;;;;34.72;16.98;;;5.00;99.90;;;;;;4991581;28;20645;-71
2021/11/26 07:17:18;;;;;;;48.40;27.35;;;5.00;99.90;;;;;;4992126;28;20281;-71
2021/11/26 07:19:49;;;;;;;36.30;18.35;;;5.00;99.90;;;;;;4990065;28;20668;-71
2021/11/26 07:22:16;;;;;;;34.33;18.90;;;5.00;99.90;;;;;;4982233;28;20263;-71
2021/11/26 07:24:43;;;;;;;35.15;17.88;;;5.00;99.90;;;;;;4992161;28;20362;-70
2021/11/26 07:27:10;;;;;;;38.05;18.02;;;5.00;99.90;;;;;;4990064;28;20208;-70
2021/11/26 07:29:37;;;;;;;28.08;14.82;;;5.00;99.90;;;;;;4992142;28;20212;-70
2021/11/26 07:32:05;;;;;;;32.13;15.10;;;5.00;99.90;;;;;;4986341;28;20620;-71
2021/11/26 07:34:32;;;;;;;24.33;15.38;;;5.00;99.90;;;;;;4971999;28;20213;-70
2021/11/26 07:37:00;;;;;;;35.05;16.15;;;5.00;99.90;;;;;;4979076;28;20204;-70
2021/11/26 07:39:33;;;;;;;30.42;16.58;;;5.00;99.90;;;;;;4991700;28;20574;-70
2021/11/26 07:42:00;;;;;;;26.60;14.25;;;5.00;99.90;;;;;;4986180;28;20248;-71
2021/11/26 07:44:26;;;;;;;32.92;23.65;;;5.00;99.90;;;;;;4990561;28;20625;-70
2021/11/26 07:46:53;;;;;;;24.17;13.73;;;5.00;99.90;;;;;;4987036;28;20205;-70
2021/11/26 07:49:20;;;;;;;21.27;11.90;;;5.00;99.90;;;;;;4971714;28;20212;-70
2021/11/26 07:51:46;;;;;;;27.08;13.80;;;5.00;99.90;;;;;;4981826;28;20219;-70
2021/11/26 07:54:14;;;;;;;31.95;14.77;;;5.00;99.90;;;;;;4991928;28;20228;-70
2021/11/26 07:56:42;;;;;;;28.80;12.30;;;5.00;99.90;;;;;;4984084;28;20707;-70
2021/11/26 07:59:08;;;;;;;25.05;13.27;;;5.00;99.90;;;;;;4972364;28;20218;-70
2021/11/26 08:01:35;;;;;;;24.77;12.38;;;5.00;99.90;;;;;;4985736;28;20587;-70
2021/11/26 08:04:02;;;;;;;27.65;11.57;;;5.00;99.90;;;;;;4976611;28;20212;-71
2021/11/26 08:06:28;;;;;;;24.60;13.27;;;5.10;99.90;;;;;;4972235;28;20205;-71
2021/11/26 08:08:55;;;;;;;18.30;10.88;;;5.10;99.90;;;;;;4971653;28;20232;-70
2021/11/26 08:11:24;;;;;;;24.08;12.18;;;5.20;99.90;;;;;;4988466;28;20231;-70
2021/11/26 08:13:51;;;;;;;22.05;11.35;;;5.20;99.90;;;;;;4989071;28;20216;-70
2021/11/26 08:16:18;;;;;;;17.50;11.00;;;5.10;99.90;;;;;;4973665;28;20209;-70
2021/11/26 08:18:45;;;;;;;20.75;9.98;;;5.10;99.90;;;;;;4971882;28;20211;-70
2021/11/26 08:21:12;;;;;;;21.80;10.93;;;5.10;99.90;;;;;;4980144;28;20228;-70
2021/11/26 08:23:38;;;;;;;22.67;9.85;;;5.10;99.90;;;;;;4973749;28;20280;-70
2021/11/26 08:26:05;;;;;;;19.60;10.80;;;5.10;99.90;;;;;;4971617;28;20296;-70
2021/11/26 08:28:33;;;;;;;20.45;9.45;;;5.10;99.90;;;;;;4971654;28;20209;-70
2021/11/26 08:31:00;;;;;;;20.88;10.20;;;5.20;99.90;;;;;;4981700;28;20584;-70
2021/11/26 08:33:27;;;;;;;16.40;9.70;;;5.20;99.90;;;;;;4977745;28;20204;-70
2021/11/26 08:35:55;;;;;;;17.85;9.10;;;5.20;99.90;;;;;;4974738;28;20208;-70
2021/11/26 08:38:22;;;;;;;20.08;9.82;;;5.20;99.90;;;;;;4977790;28;20201;-70
2021/11/26 08:40:50;;;;;;;18.77;9.82;;;5.20;99.90;;;;;;4977664;28;20319;-70
2021/11/26 08:43:16;;;;;;;20.13;10.15;;;5.20;99.90;;;;;;4985310;28;20206;-70
2021/11/26 08:45:45;;;;;;;18.70;11.27;;;5.20;99.90;;;;;;4989093;28;20207;-70
2021/11/26 08:48:12;;;;;;;22.15;10.80;;;5.20;99.90;;;;;;4976293;28;20200;-70
2021/11/26 08:50:40;;;;;;;23.85;11.77;;;5.20;99.90;;;;;;4975051;28;20236;-71
2021/11/26 08:53:08;;;;;;;20.75;10.30;;;5.30;99.90;;;;;;4971526;28;20688;-71
2021/11/26 08:55:37;;;;;;;20.02;10.77;;;5.20;99.90;;;;;;4981610;28;20282;-71
2021/11/26 08:58:05;;;;;;;24.30;10.55;;;5.30;99.90;;;;;;4973900;28;20220;-71
2021/11/26 09:00:34;;;;;;;21.85;9.65;;;5.30;99.90;;;;;;4987127;28;20239;-71
2021/11/26 09:03:04;;;;;;;16.98;9.50;;;5.30;99.90;;;;;;4976410;28;20692;-71
2021/11/26 09:05:31;;;;;;;21.42;9.23;;;5.30;99.90;;;;;;4991576;28;20637;-71
2021/11/26 09:08:01;;;;;;;14.80;7.85;;;5.30;99.90;;;;;;4980545;28;20200;-71
2021/11/26 09:10:30;;;;;;;16.30;9.23;;;5.30;99.90;;;;;;4986154;28;20787;-71
2021/11/26 09:12:57;;;;;;;14.43;8.55;;;5.40;99.90;;;;;;4980765;28;20635;-71
2021/11/26 09:15:24;;;;;;;16.30;10.40;;;5.40;99.90;;;;;;4992679;28;21031;-71
2021/11/26 09:17:51;;;;;;;15.02;9.48;;;5.50;99.90;;;;;;4984257;28;20211;-71
2021/11/26 09:20:20;;;;;;;23.02;10.38;;;5.50;99.90;;;;;;4983155;28;20200;-71
2021/11/26 09:22:46;;;;;;;24.33;15.38;;;5.50;99.90;;;;;;4985257;28;20681;-71
2021/11/26 09:25:15;;;;;;;27.02;17.85;;;5.50;99.90;;;;;;4974426;28;20212;-71
2021/11/26 09:27:42;;;;;;;24.98;13.48;;;5.50;99.90;;;;;;4985239;28;20211;-71
2021/11/26 09:30:11;;;;;;;23.27;14.40;;;5.50;99.90;;;;;;4993578;28;20204;-71
2021/11/26 09:32:38;;;;;;;24.83;16.23;;;5.50;99.90;;;;;;4999870;28;20462;-71
2021/11/26 09:35:06;;;;;;;26.67;15.85;;;5.50;99.90;;;;;;5012536;28;20207;-71
2021/11/26 09:37:34;;;;;;;30.63;16.98;;;5.50;99.90;;;;;;4984903;28;20211;-71
2021/11/26 09:40:02;;;;;;;27.15;17.48;;;5.50;99.90;;;;;;4974062;28;20263;-70
2021/11/26 09:42:30;;;;;;;29.23;14.68;;;5.50;99.90;;;;;;4981991;28;20227;-71
2021/11/26 09:44:59;;;;;;;27.85;14.80;;;5.50;99.90;;;;;;4975855;28;20231;-70
2021/11/26 09:47:26;;;;;;;25.48;13.43;;;5.50;99.90;;;;;;4985762;28;20258;-70
2021/11/26 09:49:53;;;;;;;24.98;14.15;;;5.50;99.90;;;;;;4979447;28;20210;-70
2021/11/26 09:52:20;;;;;;;30.05;17.35;;;5.60;99.90;;;;;;4990711;28;20227;-70
2021/11/26 09:54:50;;;;;;;30.70;13.18;;;5.60;99.90;;;;;;4985066;28;20215;-70
2021/11/26 09:57:17;;;;;;;34.30;14.40;;;5.60;99.90;;;;;;4993088;28;20679;-70
2021/11/26 09:59:45;;;;;;;33.60;17.05;;;5.60;99.90;;;;;;4980877;28;20196;-70
2021/11/26 10:02:14;;;;;;;33.35;15.68;;;5.60;99.90;;;;;;4981445;28;20653;-69
2021/11/26 10:04:41;;;;;;;30.55;15.88;;;5.70;99.90;;;;;;4984494;28;20199;-69
2021/11/26 10:07:08;;;;;;;29.52;15.82;;;5.70;99.90;;;;;;4990422;28;20215;-70
2021/11/26 10:09:38;;;;;;;30.92;15.05;;;5.60;99.90;;;;;;4992045;28;20211;-70
2021/11/26 10:12:10;;;;;;;43.40;21.02;;;5.70;99.90;;;;;;4993265;28;20246;-70
2021/11/26 10:14:38;;;;;;;32.95;15.73;;;5.70;99.90;;;;;;4993384;28;20497;-70
2021/11/26 10:17:10;;;;;;;34.92;15.48;;;5.70;99.90;;;;;;4992065;28;20642;-70
2021/11/26 10:19:39;;;;;;;38.97;18.30;;;5.70;99.90;;;;;;4992050;28;20284;-70
2021/11/26 10:22:19;;;;;;;41.13;17.80;;;5.70;99.90;;;;;;4992487;28;20693;-70
2021/11/26 10:24:58;;;;;;;46.63;18.13;;;5.70;99.90;;;;;;4993081;28;20270;-70
2021/11/26 10:27:42;;;;;;;39.88;18.80;;;5.70;99.90;;;;;;4992472;28;20270;-70
2021/11/26 10:30:12;;;;;;;35.22;18.83;;;5.70;99.90;;;;;;4992505;28;20495;-70
2021/11/26 10:32:39;;;;;;;36.10;16.63;;;5.70;99.90;;;;;;4992907;28;20204;-70
2021/11/26 10:35:06;;;;;;;33.63;14.55;;;5.80;99.90;;;;;;4991451;28;20204;-70
2021/11/26 10:37:33;;;;;;;39.58;17.42;;;5.80;99.90;;;;;;4992486;28;20212;-70
2021/11/26 10:40:01;;;;;;;39.83;17.52;;;5.80;99.90;;;;;;4986209;28;20228;-70
2021/11/26 10:42:29;;;;;;;32.60;16.55;;;5.80;99.90;;;;;;4991626;28;20227;-71
2021/11/26 10:45:03;;;;;;;37.63;18.30;;;5.80;99.90;;;;;;4993260;28;20219;-71
2021/11/26 10:47:42;;;;;;;33.88;17.63;;;5.80;99.90;;;;;;4993098;28;20322;-70
2021/11/26 10:58:41;;;;;;;35.97;19.23;;;5.80;99.90;;;;;;4992046;28;20768;-71
2021/11/26 11:01:13;;;;;;;33.35;19.10;;;5.80;99.90;;;;;;4992172;28;20655;-71
2021/11/26 11:03:40;;;;;;;49.53;23.95;;;5.80;99.90;;;;;;4993372;28;20259;-71
2021/11/26 11:06:16;;;;;;;40.30;24.77;;;5.80;99.90;;;;;;4993516;28;20278;-71
2021/11/26 11:08:43;;;;;;;40.50;22.33;;;5.80;99.90;;;;;;4992609;28;20294;-71
2021/11/26 11:11:10;;;;;;;39.20;20.52;;;5.80;99.90;;;;;;4991910;28;20227;-71
2021/11/26 11:13:37;;;;;;;42.00;19.63;;;5.70;99.90;;;;;;4992438;28;20212;-71
2021/11/26 11:16:11;;;;;;;38.40;17.55;;;5.80;99.90;;;;;;4992363;28;20212;-70
2021/11/26 11:18:39;;;;;;;32.45;19.02;;;5.70;99.90;;;;;;4991378;28;20565;-71
2021/11/26 11:21:07;;;;;;;31.30;18.30;;;5.70;99.90;;;;;;4992038;28;20323;-69
2021/11/26 11:23:34;;;;;;;30.90;16.77;;;5.70;99.90;;;;;;4991952;28;20228;-71
2021/11/26 11:26:01;;;;;;;37.80;17.40;;;5.70;99.90;;;;;;4991852;28;20600;-72
2021/11/26 11:28:28;;;;;;;34.75;17.70;;;5.70;99.90;;;;;;4991103;28;20576;-71
2021/11/26 11:30:56;;;;;;;33.85;15.07;;;5.80;99.90;;;;;;4986232;28;20231;-70
2021/11/26 11:33:27;;;;;;;38.65;20.42;;;5.80;99.90;;;;;;4990884;28;20199;-71
2021/11/26 11:36:00;;;;;;;35.47;20.13;;;5.80;99.90;;;;;;4991855;28;20242;-70
2021/11/26 11:38:27;;;;;;;29.33;15.00;;;5.80;99.90;;;;;;4991884;28;20224;-71
2021/11/26 11:41:01;;;;;;;30.65;15.77;;;5.80;99.90;;;;;;4991511;28;20232;-71
2021/11/26 11:43:27;;;;;;;35.80;15.88;;;5.80;99.90;;;;;;4991631;28;20604;-71
2021/11/26 11:45:58;;;;;;;32.15;14.77;;;5.90;99.90;;;;;;4991847;28;20212;-72
2021/11/26 11:48:28;;;;;;;29.55;15.70;;;5.90;99.90;;;;;;4991195;28;20215;-72
2021/11/26 11:50:56;;;;;;;26.85;16.08;;;5.90;99.90;;;;;;4991987;28;20231;-72
2021/11/26 11:53:30;;;;;;;40.90;20.95;;;5.90;99.90;;;;;;4991824;28;20527;-71
2021/11/26 11:56:07;;;;;;;44.72;22.77;;;5.90;99.90;;;;;;4992722;28;20218;-72
2021/11/26 11:58:48;;;;;;;37.47;21.48;;;5.90;99.90;;;;;;5005231;28;20605;-71
2021/11/26 12:01:27;;;;;;;32.88;20.75;;;5.90;99.90;;;;;;5007673;28;20266;-71
2021/11/26 12:03:59;;;;;;;30.80;18.52;;;6.00;99.90;;;;;;5004157;28;20259;-72
2021/11/26 12:06:37;;;;;;;33.47;16.10;;;6.00;99.90;;;;;;5011995;28;20704;-71
2021/11/26 12:09:04;;;;;;;29.60;17.25;;;6.00;99.90;;;;;;5004656;28;20313;-71
2021/11/26 12:11:33;;;;;;;23.63;16.08;;;6.00;99.90;;;;;;4993752;28;20232;-70
2021/11/26 12:14:03;;;;;;;29.27;15.20;;;6.00;99.90;;;;;;4992358;28;20212;-70
2021/11/26 12:16:32;;;;;;;25.73;16.73;;;6.00;99.90;;;;;;4991807;28;20215;-70
2021/11/26 12:19:00;;;;;;;28.67;18.40;;;5.90;99.90;;;;;;4990907;28;20214;-70
2021/11/26 12:21:32;;;;;;;17.15;13.85;;;5.90;99.90;;;;;;4994087;28;20247;-70
2021/11/26 12:24:09;;;;;;;18.95;13.43;;;5.90;99.90;;;;;;4993231;28;20200;-70
2021/11/26 12:26:44;;;;;;;22.35;12.88;;;6.00;99.90;;;;;;4991289;28;20207;-70
2021/11/26 12:29:12;;;;;;;18.65;14.35;;;6.00;99.90;;;;;;4991499;28;20215;-70
2021/11/26 12:31:40;;;;;;;14.65;11.73;;;5.90;99.90;;;;;;4991045;28;20666;-70
2021/11/26 12:34:10;;;;;;;24.02;14.25;;;5.90;99.90;;;;;;4989919;28;20629;-70
2021/11/26 12:36:41;;;;;;;23.67;14.38;;;6.00;99.90;;;;;;4990756;28;20218;-70
2021/11/26 12:39:11;;;;;;;20.70;12.00;;;6.00;99.90;;;;;;4991554;28;20200;-70
2021/11/26 12:41:40;;;;;;;24.48;14.43;;;6.00;99.90;;;;;;4986665;28;20326;-70
2021/11/26 12:44:12;;;;;;;17.63;11.60;;;6.00;99.90;;;;;;4995403;28;20208;-70
2021/11/26 12:46:40;;;;;;;15.20;10.98;;;6.00;99.90;;;;;;4995102;28;20208;-70
2021/11/26 12:51:56;;;;;;;12.45;9.27;;;6.00;99.90;;;;;;4984023;28;20775;-72
2021/11/26 12:54:28;;;;;;;15.40;10.80;;;6.00;99.90;;;;;;4998388;28;20208;-72
2021/11/26 12:56:56;;;;;;;17.00;11.25;;;6.00;99.90;;;;;;4998094;28;20204;-72
2021/11/26 12:59:34;;;;;;;10.75;7.75;;;6.00;99.90;;;;;;4995728;28;20252;-71
2021/11/26 13:02:02;;;;;;;13.43;8.73;;;6.00;99.90;;;;;;4994481;28;20232;-71
2021/11/26 13:04:30;;;;;;;12.80;8.80;;;6.00;99.90;;;;;;4993571;28;20211;-71
2021/11/26 13:07:08;;;;;;;7.57;6.88;;;6.00;99.90;;;;;;4994720;28;20207;-71
2021/11/26 13:09:44;;;;;;;11.23;6.82;;;6.00;99.90;;;;;;4994001;28;20678;-70
2021/11/26 13:12:11;;;;;;;9.93;7.30;;;6.00;99.90;;;;;;4994348;28;20234;-71
2021/11/26 13:14:52;;;;;;;6.40;5.72;;;6.00;99.90;;;;;;4994546;28;20215;-72
2021/11/26 13:17:22;;;;;;;6.13;5.50;;;6.00;99.90;;;;;;4995120;28;20208;-71
2021/11/26 13:20:08;;;;;;;6.07;5.40;;;6.00;99.90;;;;;;4993901;28;20633;-72
2021/11/26 13:22:41;;;;;;;6.18;5.70;;;5.90;99.90;;;;;;4994934;28;20231;-72
2021/11/26 13:25:08;;;;;;;4.78;4.47;;;6.00;99.90;;;;;;4995212;28;20304;-72
2021/11/26 13:27:45;;;;;;;7.78;6.97;;;6.00;99.90;;;;;;4995156;28;20215;-70
2021/11/26 13:30:17;;;;;;;24.45;16.23;;;5.90;99.90;;;;;;4989024;28;20211;-70
2021/11/26 13:32:45;;;;;;;8.25;6.35;;;5.90;99.90;;;;;;4995034;28;20235;-70
2021/11/26 13:35:13;;;;;;;29.88;19.50;;;5.80;99.90;;;;;;4994438;28;20211;-70
2021/11/26 13:37:50;;;;;;;13.48;9.90;;;5.90;99.90;;;;;;4994946;28;20212;-70
2021/11/26 13:40:17;;;;;;;9.07;7.75;;;5.80;99.90;;;;;;4994044;28;20207;-69
2021/11/26 13:42:52;;;;;;;10.77;8.95;;;5.90;99.90;;;;;;4993894;28;20219;-70
2021/11/26 13:45:18;;;;;;;10.60;9.18;;;5.80;99.90;;;;;;4993282;28;20298;-70
2021/11/26 13:47:45;;;;;;;10.80;9.80;;;5.80;99.90;;;;;;4993850;28;20214;-70
2021/11/26 13:50:13;;;;;;;6.90;6.20;;;5.80;99.90;;;;;;4992680;28;20218;-71
2021/11/26 13:52:41;;;;;;;6.75;6.25;;;5.80;99.90;;;;;;4993048;28;20204;-70
2021/11/26 13:55:08;;;;;;;9.05;8.15;;;5.80;99.90;;;;;;4993266;28;20284;-70
2021/11/26 13:57:35;;;;;;;8.07;6.50;;;5.80;99.90;;;;;;4993599;28;20233;-71
2021/11/26 14:00:08;;;;;;;2.47;2.28;;;5.70;99.90;;;;;;4993030;28;20558;-71
2021/11/26 14:02:46;;;;;;;6.22;5.15;;;5.70;99.90;;;;;;4991926;28;20238;-70
2021/11/26 14:05:14;;;;;;;4.93;4.53;;;5.70;99.90;;;;;;4992614;28;20203;-72
2021/11/26 14:07:41;;;;;;;6.57;5.97;;;5.70;99.90;;;;;;4995386;28;20212;-71
2021/11/26 14:10:10;;;;;;;4.70;4.22;;;5.70;99.90;;;;;;4995643;28;20208;-71
2021/11/26 14:12:37;;;;;;;9.85;8.68;;;5.60;99.90;;;;;;4994219;28;20239;-71
2021/11/26 14:15:04;;;;;;;8.32;7.10;;;5.60;99.90;;;;;;4993111;28;20230;-71
2021/11/26 14:17:33;;;;;;;30.15;16.80;;;5.60;99.90;;;;;;4993379;28;20235;-71
2021/11/26 14:20:02;;;;;;;9.20;5.00;;;5.60;99.90;;;;;;4992582;28;20234;-70
2021/11/26 14:22:32;;;;;;;15.40;11.30;;;5.60;99.90;;;;;;4993215;28;20232;-71
2021/11/26 14:25:05;;;;;;;7.35;6.68;;;5.60;99.90;;;;;;4993256;28;20235;-70
2021/11/26 14:27:34;;;;;;;5.10;4.65;;;5.60;99.90;;;;;;4993638;28;20204;-71
2021/11/26 14:30:06;;;;;;;10.50;8.85;;;5.60;99.90;;;;;;4993041;28;20223;-71
2021/11/26 14:32:34;;;;;;;7.78;6.72;;;5.60;99.90;;;;;;4993121;28;20250;-71
2021/11/26 14:35:10;;;;;;;12.60;8.88;;;5.50;99.90;;;;;;4992353;28;20214;-71
2021/11/26 14:37:39;;;;;;;7.53;6.57;;;5.50;99.90;;;;;;4993808;28;20702;-71
2021/11/26 14:40:23;;;;;;;12.20;8.20;;;5.50;99.90;;;;;;4994507;28;20208;-70
2021/11/26 14:43:01;;;;;;;14.10;11.38;;;5.50;99.90;;;;;;4995003;28;20227;-71
2021/11/26 14:45:30;;;;;;;8.73;7.03;;;5.50;99.90;;;;;;4994337;28;20219;-70
2021/11/26 14:47:57;;;;;;;18.67;8.88;;;5.50;99.90;;;;;;4992506;28;20241;-71
2021/11/26 14:50:25;;;;;;;14.30;10.75;;;5.50;99.90;;;;;;4991442;28;20211;-70
2021/11/26 14:52:53;;;;;;;11.98;9.40;;;5.40;99.90;;;;;;4986309;28;20227;-71
2021/11/26 14:55:20;;;;;;;8.60;7.75;;;5.40;99.90;;;;;;4992039;28;20204;-71
2021/11/26 14:57:47;;;;;;;9.93;8.90;;;5.40;99.90;;;;;;4992504;28;20212;-71
2021/11/26 15:00:15;;;;;;;6.95;6.22;;;5.40;99.90;;;;;;4991651;28;20306;-71
2021/11/26 15:02:41;;;;;;;9.20;6.78;;;5.40;99.90;;;;;;4992108;28;20446;-69
2021/11/26 15:05:09;;;;;;;7.45;6.70;;;5.40;99.90;;;;;;4991463;28;20208;-69
2021/11/26 15:07:36;;;;;;;6.00;5.50;;;5.40;99.90;;;;;;4992348;28;20858;-70
2021/11/26 15:10:05;;;;;;;4.80;4.38;;;5.40;99.90;;;;;;4992014;28;20210;-70
2021/11/26 15:12:32;;;;;;;5.50;4.85;;;5.40;99.90;;;;;;4991903;28;20239;-70
2021/11/26 15:14:58;;;;;;;6.60;6.00;;;5.30;99.90;;;;;;4992010;28;20208;-70
2021/11/26 15:17:25;;;;;;;6.93;6.32;;;5.30;99.90;;;;;;4992184;28;20647;-70
2021/11/26 15:19:52;;;;;;;5.30;4.82;;;5.30;99.90;;;;;;4991049;28;20215;-71
2021/11/26 15:22:20;;;;;;;3.95;3.75;;;5.30;99.90;;;;;;4992305;28;20232;-70
2021/11/26 15:24:47;;;;;;;5.68;5.28;;;5.30;99.90;;;;;;4992067;28;20427;-70
2021/11/26 15:27:15;;;;;;;5.88;5.10;;;5.30;99.90;;;;;;4992226;28;20211;-69
2021/11/26 15:29:43;;;;;;;6.90;5.90;;;5.30;99.90;;;;;;4985577;28;20518;-70
2021/11/26 15:32:10;;;;;;;7.68;6.88;;;5.30;99.90;;;;;;4991354;28;20224;-70
2021/11/26 15:34:37;;;;;;;12.48;6.97;;;5.30;99.90;;;;;;4990712;28;20204;-70
2021/11/26 15:37:04;;;;;;;6.15;5.65;;;5.20;99.90;;;;;;4992108;28;20210;-71
2021/11/26 15:39:31;;;;;;;7.32;5.85;;;5.20;99.90;;;;;;4991244;28;20781;-70
2021/11/26 15:41:57;;;;;;;7.13;6.53;;;5.20;99.90;;;;;;4991285;28;20228;-71
2021/11/26 15:44:25;;;;;;;6.25;5.45;;;5.20;99.90;;;;;;4991441;28;20235;-71
2021/11/26 15:46:53;;;;;;;6.70;6.03;;;5.20;99.90;;;;;;4991594;28;20212;-70
2021/11/26 15:49:20;;;;;;;7.47;6.68;;;5.20;99.90;;;;;;4990836;28;20212;-71
2021/11/26 15:51:47;;;;;;;5.95;5.20;;;5.20;99.90;;;;;;4991311;28;20809;-71
2021/11/26 15:54:14;;;;;;;7.72;6.20;;;5.20;99.90;;;;;;4991297;28;20645;-70
2021/11/26 15:56:40;;;;;;;16.98;13.25;;;5.20;99.90;;;;;;4991072;28;20535;-71
2021/11/26 15:59:07;;;;;;;15.15;9.70;;;5.20;99.90;;;;;;4991179;28;20262;-71
2021/11/26 16:01:35;;;;;;;6.63;6.07;;;5.20;99.90;;;;;;4989350;28;20242;-71
2021/11/26 16:04:02;;;;;;;20.42;15.15;;;5.20;99.90;;;;;;4990027;28;20227;-71
2021/11/26 16:06:29;;;;;;;16.13;11.48;;;5.20;99.90;;;;;;4991231;28;20310;-71
2021/11/26 16:08:58;;;;;;;15.85;12.18;;;5.20;99.90;;;;;;4991053;28;20286;-69
2021/11/26 16:11:27;;;;;;;14.40;11.43;;;5.20;99.90;;;;;;4990838;28;20318;-68
2021/11/26 16:13:54;;;;;;;7.53;6.85;;;5.20;99.90;;;;;;4991049;28;20599;-70
2021/11/26 16:16:21;;;;;;;11.60;8.35;;;5.20;99.90;;;;;;4990400;28;20219;-69
2021/11/26 16:18:49;;;;;;;12.68;10.30;;;5.20;99.90;;;;;;4990175;28;20203;-70
2021/11/26 16:21:16;;;;;;;8.50;7.05;;;5.20;99.90;;;;;;4990812;28;20235;-69
2021/11/26 16:23:43;;;;;;;8.60;7.75;;;5.20;99.90;;;;;;4990868;28;20234;-70
2021/11/26 16:26:10;;;;;;;19.50;12.15;;;5.20;99.90;;;;;;4991094;28;20629;-70
2021/11/26 16:28:37;;;;;;;14.93;9.35;;;5.20;99.90;;;;;;4990908;28;20285;-70
2021/11/26 16:31:41;;;;;;;12.20;7.63;;;5.20;99.90;;;;;;4990533;28;20235;-70
2021/11/26 16:34:12;;;;;;;11.25;8.95;;;5.20;99.90;;;;;;4948847;29;20269;-70
2021/11/26 16:36:45;;;;;;;10.70;7.75;;;5.10;99.90;;;;;;4984979;28;20315;-71
2021/11/26 16:39:12;;;;;;;8.73;7.82;;;5.10;99.90;;;;;;4992713;28;20208;-70
2021/11/26 16:41:39;;;;;;;14.55;9.88;;;5.10;99.90;;;;;;4990585;28;20238;-70
2021/11/26 16:44:06;;;;;;;13.18;8.18;;;5.10;99.90;;;;;;4990422;28;20311;-70
2021/11/26 16:46:33;;;;;;;10.77;9.65;;;5.10;99.90;;;;;;4990629;28;20212;-70
2021/11/26 16:49:00;;;;;;;10.00;7.60;;;5.00;99.90;;;;;;4990116;28;20219;-71
2021/11/26 16:51:28;;;;;;;9.85;8.10;;;5.00;99.90;;;;;;4983190;28;20745;-69
2021/11/26 16:53:55;;;;;;;8.88;7.90;;;5.00;99.90;;;;;;4990584;28;20211;-70
2021/11/26 16:56:22;;;;;;;10.70;8.10;;;5.00;99.90;;;;;;4990595;28;20211;-70
2021/11/26 16:58:49;;;;;;;10.73;7.18;;;5.00;99.90;;;;;;4990486;28;20204;-71
2021/11/26 17:01:15;;;;;;;10.45;9.35;;;5.00;99.90;;;;;;4990274;28;20263;-70
2021/11/26 17:03:42;;;;;;;8.82;7.90;;;5.00;99.90;;;;;;4990623;28;20605;-71
2021/11/26 17:06:09;;;;;;;9.80;8.52;;;5.00;99.90;;;;;;4991215;28;20215;-71
2021/11/26 17:08:37;;;;;;;12.45;9.70;;;4.90;99.90;;;;;;4990903;28;20219;-71
2021/11/26 17:11:04;;;;;;;13.75;9.30;;;4.90;99.90;;;;;;4990323;28;20618;-70
2021/11/26 17:13:30;;;;;;;13.57;9.98;;;5.00;99.90;;;;;;4990387;28;20208;-71
2021/11/26 17:15:57;;;;;;;12.05;9.55;;;4.90;99.90;;;;;;4990589;28;20212;-70
2021/11/26 17:18:24;;;;;;;12.80;9.43;;;4.90;99.90;;;;;;4989437;28;20208;-70
2021/11/26 17:20:51;;;;;;;13.45;8.88;;;4.90;99.90;;;;;;4990407;28;20238;-70
2021/11/26 17:23:17;;;;;;;13.77;9.15;;;4.90;99.90;;;;;;4990461;28;20211;-70
2021/11/26 17:25:45;;;;;;;9.77;8.77;;;4.90;99.90;;;;;;4991034;28;20216;-70
2021/11/26 17:28:12;;;;;;;15.30;9.40;;;4.90;99.90;;;;;;4992592;28;20669;-70
2021/11/26 17:30:39;;;;;;;11.45;7.78;;;4.80;99.90;;;;;;4987917;28;20224;-70
2021/11/26 17:33:06;;;;;;;11.40;9.82;;;4.80;99.90;;;;;;4993200;28;20203;-70
2021/11/26 17:35:33;;;;;;;12.32;9.30;;;4.80;99.90;;;;;;4993447;28;20208;-70
2021/11/26 17:38:00;;;;;;;11.73;8.90;;;4.70;99.90;;;;;;4993590;28;20238;-70
2021/11/26 17:40:27;;;;;;;9.38;8.18;;;4.70;99.90;;;;;;4993545;28;20277;-70
2021/11/26 17:42:55;;;;;;;9.70;8.13;;;4.70;99.90;;;;;;4993605;28;20236;-70
2021/11/26 17:45:24;;;;;;;10.93;9.02;;;4.70;99.90;;;;;;4993424;28;20228;-70
2021/11/26 17:47:51;;;;;;;10.05;8.57;;;4.60;99.90;;;;;;4995685;28;20208;-70
2021/11/26 17:50:18;;;;;;;12.60;8.63;;;4.60;99.90;;;;;;4992744;28;20212;-70
2021/11/26 17:52:45;;;;;;;12.32;8.85;;;4.60;99.90;;;;;;4993223;28;20207;-71
2021/11/26 17:55:11;;;;;;;15.40;9.25;;;4.60;99.90;;;;;;4993010;28;20267;-70
2021/11/26 17:57:38;;;;;;;9.10;8.13;;;4.60;99.90;;;;;;4993464;28;20208;-70
2021/11/26 18:00:08;;;;;;;9.20;7.40;;;4.60;99.90;;;;;;4993254;28;20241;-70
2021/11/26 18:02:36;;;;;;;12.57;8.43;;;4.60;99.90;;;;;;4993418;28;20228;-70